Terminal Aerodrome Forecast
Issued by NWS

Home | Current Version | Previous Version | Text Only | Print | Product List | Glossary On
Versions: 1 2 3 4 5 6 7 8 9 10 11 12 13 14 15 16 17
000
FTAK31 PANC 252341
TAFADU
TAF
PADU 252341Z 2600/2624 22010G16KT P6SM VCSH BKN045
     FM260600 22014G22KT P6SM -RA SCT025 BKN035
     FM261000 25016G25KT 6SM -RA BR SCT020 BKN030
     FM261300 28018G28KT P6SM -RA SCT015 BKN025=

USA.gov is the U.S. government's official web portal to all federal, state and local government web resources and services.